Latest Coastal Weather Observations for Mandurah

IDW60701

Issued at 8:33 am WST Sunday 22 October 2017 (issued every 10 minutes, with the page automatically refreshed every 10 minutes)

About coastal observations | Map of coastal stations | Coastal observations for WA | Marine services | Other Formats
Station Details ID: 009977 Name: MANDURAH Lat: -32.52 Lon: 115.71 Height: 3.0 m
Data from the previous 72 hours. | See also: Recent months at Mandurah
Date/Time
WST
Temp
°C
Wind Pressure Rain since
9am
mm
Weather Cloud Vis
km
Sea
Height
m
Swell
Dir  Spd
kts
Gust
kts
hPa Trend Height
m
Period
s
Dir
22/08:30am 23.4 E 7 12 1012.6 - 0.0 - - - - - - -
22/08:00am 22.6 E 9 13 1012.5 - 0.0 - - - - - - -
22/07:30am 22.3 E 4 6 1012.9 - 0.0 - - - - - - -
22/07:00am 21.4 E 1 2 1012.7 - 0.0 - - - - - - -
22/06:30am 20.5 SW 2 2 1012.7 - 0.0 - - - - - - -
22/06:00am 20.0 SW 4 7 1012.7 - 0.0 - - - - - - -
22/05:30am 20.2 CALM 0 0 1012.0 - 0.0 - - - - - - -
22/05:00am 20.7 ENE 4 6 1011.7 - 0.0 - - - - - - -
22/04:30am 21.5 NNE 3 6 1011.6 - 0.0 - - - - - - -
22/04:00am 21.4 NNE 5 11 1011.7 - 0.0 - - - - - - -
22/03:30am 22.0 ENE 11 18 1011.4 - 0.0 - - - - - - -
22/03:00am 22.2 ENE 13 19 1011.2 - 0.0 - - - - - - -
22/02:30am 22.2 ENE 13 20 1011.2 - 0.0 - - - - - - -
22/02:00am 22.4 ENE 12 24 1011.2 - 0.0 - - - - - - -
22/01:30am 23.1 ENE 14 26 1011.7 - 0.0 - - - - - - -
22/01:00am 23.2 ENE 12 20 1011.9 - 0.0 - - - - - - -
22/12:30am 23.3 ENE 12 19 1012.7 - 0.0 - - - - - - -
22/12:00am 23.4 ENE 10 16 1013.3 - 0.0 - - - - - - -
 
Date/Time
WST
Temp
°C
Wind Pressure Rain since
9am
mm
Weather Cloud Vis
km
Sea
Height
m
Swell
Dir  Spd
kts
Gust
kts
hPa Trend Height
m
Period
s
Dir
21/11:30pm 23.6 NE 11 17 1013.5 - 0.0 - - - - - - -
21/11:00pm 23.7 ENE 6 10 1013.7 - 0.0 - - - - - - -
21/10:30pm 22.9 NE 9 11 1013.9 - 0.0 - - - - - - -
21/10:00pm 24.3 ENE 6 9 1013.9 - 0.0 - - - - - - -
21/09:30pm 24.9 ENE 10 15 1014.2 - 0.0 - - - - - - -
21/09:00pm 25.1 ENE 13 19 1014.4 - 0.0 - - - - - - -
21/08:30pm 24.9 ENE 10 14 1014.7 - 0.0 - - - - - - -
21/08:00pm 25.7 ENE 9 17 1014.4 - 0.0 - - - - - - -
21/07:30pm 26.3 ENE 14 21 1014.1 - 0.0 - - - - - - -
21/07:00pm 25.2 NE 12 17 1014.1 - 0.0 - - - - - - -
21/06:30pm 25.5 NE 12 18 1014.4 - 0.0 - - - - - - -
21/06:00pm 25.9 NE 13 19 1014.4 - 0.0 - - - - - - -
21/05:30pm 26.3 ENE 9 12 1014.3 - 0.0 - - - - - - -
21/05:00pm 26.8 ENE 7 11 1014.3 - 0.0 - - - - - - -
21/04:30pm 28.3 ENE 7 11 1014.2 - 0.0 - - - - - - -
21/04:00pm 29.0 E 8 12 1014.4 - 0.0 - - - - - - -
21/03:30pm 29.0 ESE 7 10 1014.6 - 0.0 - - - - - - -
21/03:00pm 27.8 SSE 5 8 1015.2 - 0.0 - - - - - - -
21/02:30pm 25.9 SSE 7 9 1015.7 - 0.0 - - - - - - -
21/02:00pm 26.7 ESE 2 4 1016.4 - 0.0 - - - - - - -
21/01:30pm 26.6 ESE 10 15 1015.9 - 0.0 - - - - - - -
21/01:00pm 26.8 E 6 10 1016.9 - 0.0 - - - - - - -
21/12:30pm 26.5 E 5 10 1017.3 - 0.0 - - - - - - -
21/12:00pm 27.1 E 10 20 1016.5 - 0.0 - - - - - - -
21/11:30am 28.0 E 12 20 1017.2 - 0.0 - - - - - - -
21/11:00am 27.6 ENE 13 20 1017.8 - 0.0 - - - - - - -
21/10:30am 26.7 ENE 12 19 1018.2 - 0.0 - - - - - - -
21/10:00am 25.4 ENE 11 21 1018.8 - 0.0 - - - - - - -
21/09:30am 26.2 ENE 11 18 1019.0 - 0.0 - - - - - - -
21/09:00am 24.6 ENE 12 21 1019.0 - 0.0 - - - - - - -
21/08:30am 23.4 ENE 9 17 1019.1 - 0.0 - - - - - - -
21/08:00am 21.2 E 7 14 1019.3 - 0.0 - - - - - - -
21/07:30am 19.9 E 6 11 1019.6 - 0.0 - - - - - - -
21/07:00am 18.3 ESE 6 10 1020.1 - 0.0 - - - - - - -
21/06:30am 17.7 E 7 12 1020.0 - 0.0 - - - - - - -
21/06:00am 16.7 ESE 6 10 1019.8 - 0.0 - - - - - - -
21/05:30am 16.5 SE 6 8 1019.7 - 0.0 - - - - - - -
21/05:00am 16.9 ESE 8 12 1019.7 - 0.0 - - - - - - -
21/04:30am 17.0 ESE 7 11 1019.5 - 0.0 - - - - - - -
21/04:00am 17.1 ESE 5 9 1019.7 - 0.0 - - - - - - -
21/03:30am 17.4 SE 4 8 1020.0 - 0.0 - - - - - - -
21/03:00am 17.4 ESE 7 11 1019.8 - 0.0 - - - - - - -
21/02:30am 17.7 ESE 8 13 1019.8 - 0.0 - - - - - - -
21/02:00am 18.0 ESE 10 15 1020.0 - 0.0 - - - - - - -
21/01:30am 18.4 ESE 10 15 1020.5 - 0.0 - - - - - - -
21/01:00am 18.8 ESE 11 15 1020.4 - 0.0 - - - - - - -
21/12:30am 19.1 ESE 11 16 1020.7 - 0.0 - - - - - - -
21/12:00am 19.5 ESE 11 18 1020.9 - 0.0 - - - - - - -
 
Date/Time
WST
Temp
°C
Wind Pressure Rain since
9am
mm
Weather Cloud Vis
km
Sea
Height
m
Swell
Dir  Spd
kts
Gust
kts
hPa Trend Height
m
Period
s
Dir
20/11:30pm 20.4 ESE 12 17 1021.0 - 0.0 - - - - - - -
20/11:00pm 21.1 SE 9 13 1021.1 - 0.0 - - - - - - -
20/10:30pm 21.0 SE 7 8 1021.5 - 0.0 - - - - - - -
20/10:00pm 21.3 SE 6 9 1022.0 - 0.0 - - - - - - -
20/09:30pm 21.7 SE 5 7 1022.4 - 0.0 - - - - - - -
20/09:00pm 22.5 SE 5 7 1022.4 - 0.0 - - - - - - -
20/08:30pm 23.3 SE 6 7 1022.4 - 0.0 - - - - - - -
20/08:00pm 23.9 SE 6 8 1022.2 - 0.0 - - - - - - -
20/07:30pm 24.6 SE 5 8 1021.8 - 0.0 - - - - - - -
20/07:00pm 25.2 SE 4 6 1021.6 - 0.0 - - - - - - -
20/06:30pm 26.5 SSE 3 5 1021.2 - 0.0 - - - - - - -
20/06:00pm 27.6 ESE 5 7 1021.2 - 0.0 - - - - - - -
20/05:30pm 28.6 E 6 9 1021.0 - 0.0 - - - - - - -
20/05:00pm 29.1 E 7 11 1021.1 - 0.0 - - - - - - -
20/04:30pm 29.7 ENE 5 10 1021.1 - 0.0 - - - - - - -
20/04:00pm 30.0 E 6 12 1021.1 - 0.0 - - - - - - -
20/03:30pm 30.4 E 4 8 1021.3 - 0.0 - - - - - - -
20/03:00pm 30.1 ESE 7 12 1021.5 - 0.0 - - - - - - -
20/02:30pm 29.8 E 7 13 1021.7 - 0.0 - - - - - - -
20/02:00pm 29.9 ESE 9 15 1022.0 - 0.0 - - - - - - -
20/01:30pm 29.4 NE 8 13 1022.1 - 0.0 - - - - - - -
20/01:00pm 28.9 ENE 9 13 1022.5 - 0.0 - - - - - - -
20/12:30pm 28.6 ENE 8 14 1022.8 - 0.0 - - - - - - -
20/12:00pm 28.0 ENE 5 10 1023.1 - 0.0 - - - - - - -
20/11:30am 28.3 E 7 12 1023.5 - 0.0 - - - - - - -
20/11:00am 27.4 ENE 7 10 1023.9 - 0.0 - - - - - - -
20/10:30am 26.6 E 8 11 1024.1 - 0.0 - - - - - - -
20/10:00am 25.1 ENE 9 13 1024.2 - 0.0 - - - - - - -
20/09:30am 23.8 ENE 11 16 1024.3 - 0.0 - - - - - - -
20/09:00am 22.5 ENE 13 21 1024.6 - 0.0 - - - - - - -
20/08:30am 21.3 ENE 7 13 1024.6 - 0.0 - - - - - - -
20/08:00am 19.4 ENE 8 12 1024.5 - 0.0 - - - - - - -
20/07:30am 17.9 ENE 8 15 1024.6 - 0.0 - - - - - - -
20/07:00am 15.6 ESE 4 5 1024.7 - 0.0 - - - - - - -
20/06:30am 14.8 ESE 5 8 1024.4 - 0.0 - - - - - - -
20/06:00am 14.2 ESE 6 11 1024.4 - 0.0 - - - - - - -
20/05:30am 14.3 ESE 7 12 1024.0 - 0.0 - - - - - - -
20/05:00am 14.5 ESE 6 11 1023.8 - 0.0 - - - - - - -
20/04:30am 14.4 ESE 5 8 1023.5 - 0.0 - - - - - - -
20/04:00am 14.4 ESE 6 9 1023.5 - 0.0 - - - - - - -
20/03:30am 14.7 E 6 10 1023.6 - 0.0 - - - - - - -
20/03:00am 14.8 E 5 11 1023.6 - 0.0 - - - - - - -
20/02:30am 15.1 E 6 12 1023.6 - 0.0 - - - - - - -
20/02:00am 15.4 ESE 6 9 1023.6 - 0.0 - - - - - - -
20/01:30am 15.7 ESE 5 8 1024.0 - 0.0 - - - - - - -
20/01:00am 15.8 ESE 5 8 1023.9 - 0.0 - - - - - - -
20/12:30am 15.9 ESE 6 10 1024.0 - 0.0 - - - - - - -
20/12:00am 16.4 SE 8 11 1024.3 - 0.0 - - - - - - -
 
Date/Time
WST
Temp
°C
Wind Pressure Rain since
9am
mm
Weather Cloud Vis
km
Sea
Height
m
Swell
Dir  Spd
kts
Gust
kts
hPa Trend Height
m
Period
s
Dir
19/11:30pm 15.9 SSE 7 12 1024.4 - 0.0 - - - - - - -
19/11:00pm 16.0 SSE 5 8 1024.3 - 0.0 - - - - - - -
19/10:30pm 16.2 SE 6 8 1024.5 - 0.0 - - - - - - -
19/10:00pm 16.4 SSE 7 10 1024.9 - 0.0 - - - - - - -
19/09:30pm 16.4 SSE 7 11 1025.2 - 0.0 - - - - - - -
19/09:00pm 17.1 SSE 7 10 1025.3 - 0.0 - - - - - - -
19/08:30pm 17.6 SSE 7 10 1025.5 - 0.0 - - - - - - -
19/08:00pm 17.6 SSE 7 10 1025.6 - 0.0 - - - - - - -
19/07:30pm 17.8 S 7 10 1025.3 - 0.0 - - - - - - -
19/07:00pm 18.0 S 8 11 1025.2 - 0.0 - - - - - - -
19/06:30pm 18.4 S 9 13 1024.9 - 0.0 - - - - - - -
19/06:00pm 19.2 S 10 16 1024.5 - 0.0 - - - - - - -
19/05:30pm 19.5 SSW 11 17 1024.3 - 0.0 - - - - - - -
19/05:00pm 21.2 SW 7 12 1023.9 - 0.0 - - - - - - -
19/04:30pm 21.3 W 9 13 1023.6 - 0.0 - - - - - - -
19/04:00pm 25.1 ESE 5 9 1023.5 - 0.0 - - - - - - -
19/03:30pm 24.9 ESE 6 10 1023.6 - 0.0 - - - - - - -
19/03:00pm 24.5 E 5 9 1023.7 - 0.0 - - - - - - -
19/02:30pm 24.0 ENE 6 10 1023.8 - 0.0 - - - - - - -
19/02:00pm 24.5 ESE 5 11 1024.2 - 0.0 - - - - - - -
19/01:30pm 24.3 ESE 6 10 1024.4 - 0.0 - - - - - - -
19/01:00pm 23.4 ENE 8 13 1025.2 - 0.0 - - - - - - -
19/12:30pm 22.3 E 6 11 1025.6 - 0.0 - - - - - - -
19/12:00pm 22.3 ESE 7 11 1025.8 - 0.0 - - - - - - -
19/11:30am 21.3 ENE 7 11 1026.1 - 0.0 - - - - - - -
19/11:00am 20.6 E 7 10 1026.4 - 0.0 - - - - - - -
19/10:30am 19.4 ESE 7 13 1026.8 - 0.0 - - - - - - -
19/10:00am 19.3 E 8 13 1027.3 - 0.0 - - - - - - -
19/09:30am 17.6 E 9 16 1027.5 - 0.0 - - - - - - -
19/09:00am 16.7 E 8 11 1027.8 - 0.2 - - - - - - -

Other Formats:

Comma delimited format used in spreadsheet applications
http://www.bom.gov.au/fwo/IDW60701/IDW60701.94605.axf

JavaScript Object Notation format (JSON) in row-major order
http://www.bom.gov.au/fwo/IDW60701/IDW60701.94605.json